Time;durP1;ratioP1;P1;durP2;ratioP2;P2;SDS_P1;SDS_P2;PMS_P1;PMS_P2;Temp;Humidity;BMP_temperature;BMP_pressure;BME280_temperature;BME280_humidity;BME280_pressure;Samples;Min_cycle;Max_cycle;Signal;HPM_P1;HPM_P2
2021/05/06 00:02:28;;;;;;;8.00;6.95;;;;;;;3.76;86.33;100714.16;1044263;28;20071;-74
2021/05/06 00:11:41;;;;;;;8.90;8.00;;;;;;;3.82;86.69;100714.38;1046938;28;20300;-74
2021/05/06 00:29:36;;;;;;;10.20;7.63;;;;;;;3.79;86.63;100714.25;1044335;28;20516;-73
2021/05/06 00:32:06;;;;;;;8.10;7.30;;;;;;;3.65;87.26;100692.38;1048404;28;20045;-73
2021/05/06 00:32:39;;;;;;;7.35;6.70;;;;;;;3.64;86.87;100695.75;1039925;28;20049;-73
2021/05/06 00:33:10;;;;;;;8.45;7.38;;;;;;;3.63;86.12;100696.53;1035885;28;20407;-74
2021/05/06 00:33:41;;;;;;;8.52;7.32;;;;;;;3.64;86.35;100700.88;1038010;28;20160;-73
2021/05/06 00:34:12;;;;;;;8.32;7.63;;;;;;;3.64;86.24;100695.75;1040533;28;20049;-73
2021/05/06 00:34:43;;;;;;;7.68;6.97;;;;;;;3.60;86.54;100697.31;1039829;28;20046;-73
2021/05/06 00:35:14;;;;;;;8.43;7.57;;;;;;;3.54;86.65;100691.94;1036948;28;20057;-74
2021/05/06 00:35:47;;;;;;;8.48;7.65;;;;;;;3.51;86.34;100702.03;1039833;28;20045;-73
2021/05/06 00:36:18;;;;;;;12.00;7.93;;;;;;;3.51;86.52;100701.16;1040591;28;20046;-73
2021/05/06 00:36:49;;;;;;;10.70;9.48;;;;;;;3.54;86.71;100696.19;1040529;28;20543;-73
2021/05/06 00:37:20;;;;;;;8.95;8.02;;;;;;;3.52;86.62;100697.78;1044233;28;20063;-73
2021/05/06 00:38:10;;;;;;;8.35;7.55;;;;;;;3.56;86.67;100699.66;1040106;28;20469;-73
2021/05/06 00:38:49;;;;;;;7.45;6.80;;;;;;;3.54;86.63;100696.19;1043374;28;20076;-73
2021/05/06 00:39:26;;;;;;;9.43;7.90;;;;;;;3.57;87.06;100696.28;1044155;28;20049;-73
2021/05/06 00:40:05;;;;;;;7.82;7.03;;;;;;;3.59;86.80;100694.69;1042739;28;20051;-73
2021/05/06 00:41:04;;;;;;;8.30;6.93;;;;;;;3.55;86.63;100700.47;1040016;28;20073;-73
2021/05/06 00:43:22;;;;;;;7.88;7.18;;;;;;;3.63;87.22;100689.78;1044088;28;20044;-74
2021/05/06 00:44:14;;;;;;;8.15;7.28;;;;;;;3.67;87.39;100695.84;1043748;28;20075;-74
2021/05/06 00:57:17;;;;;;;8.82;8.02;;;;;;;3.49;86.53;100688.31;1044977;28;20049;-74
2021/05/06 01:03:06;;;;;;;10.07;9.07;;;;;;;3.61;88.72;100682.81;1049091;28;20056;-74
2021/05/06 01:03:55;;;;;;;8.77;7.50;;;;;;;3.63;87.68;100679.53;1048991;28;20075;-74
2021/05/06 01:06:03;;;;;;;9.82;8.82;;;;;;;3.57;88.28;100680.94;1044745;28;20060;-75
2021/05/06 01:06:43;;;;;;;12.35;8.25;;;;;;;3.57;87.90;100675.84;1044892;28;20132;-74
2021/05/06 01:08:17;;;;;;;10.75;9.02;;;;;;;3.57;88.08;100671.59;1044819;28;20127;-74
2021/05/06 01:08:52;;;;;;;11.00;9.73;;;;;;;3.51;88.48;100676.47;1044527;28;20049;-74
2021/05/06 01:09:28;;;;;;;10.40;9.30;;;;;;;3.52;88.37;100678.22;1040486;28;20049;-74
2021/05/06 01:10:28;;;;;;;9.80;8.77;;;;;;;3.58;88.07;100678.47;1036503;28;20521;-74
2021/05/06 01:11:16;;;;;;;9.32;8.32;;;;;;;3.60;87.93;100681.09;1033264;28;20113;-74
2021/05/06 01:11:58;;;;;;;11.23;8.93;;;;;;;3.52;87.43;100682.44;1040311;28;20053;-74
2021/05/06 01:12:29;;;;;;;9.70;8.68;;;;;;;3.58;87.11;100677.59;1044714;28;20051;-73
2021/05/06 01:13:00;;;;;;;10.93;9.80;;;;;;;3.56;87.95;100672.41;1044783;28;20124;-74
2021/05/06 01:13:32;;;;;;;10.07;9.07;;;;;;;3.59;88.09;100676.78;1044667;28;20108;-74
2021/05/06 01:14:06;;;;;;;9.43;8.48;;;;;;;3.64;88.26;100670.19;1040611;28;20045;-74
2021/05/06 01:14:37;;;;;;;11.80;9.60;;;;;;;3.58;88.52;100665.69;1036511;28;20053;-74
2021/05/06 01:15:09;;;;;;;10.90;9.93;;;;;;;3.60;88.70;100666.63;1033373;28;20105;-74
2021/05/06 01:15:40;;;;;;;11.02;10.02;;;;;;;3.59;87.76;100670.00;1036748;28;20050;-74
2021/05/06 01:16:12;;;;;;;10.73;9.02;;;;;;;3.60;88.21;100664.06;1041118;28;20045;-74
2021/05/06 01:16:43;;;;;;;13.43;10.57;;;;;;;3.60;87.95;100666.63;1044788;28;20092;-74
2021/05/06 01:17:14;;;;;;;11.57;10.15;;;;;;;3.62;88.08;100670.09;1037943;28;20041;-74
2021/05/06 01:17:46;;;;;;;10.20;9.20;;;;;;;3.65;88.16;100669.34;1032798;28;20058;-74
2021/05/06 01:18:17;;;;;;;13.05;9.95;;;;;;;3.70;88.57;100668.72;1036454;28;20057;-74
2021/05/06 01:18:48;;;;;;;10.68;9.68;;;;;;;3.64;87.40;100665.06;1037007;28;20054;-75
2021/05/06 01:19:19;;;;;;;12.82;9.85;;;;;;;3.66;87.65;100663.44;1037106;28;20463;-75
2021/05/06 01:19:50;;;;;;;10.73;9.63;;;;;;;3.63;88.18;100669.31;1040073;28;20061;-73
2021/05/06 01:20:21;;;;;;;11.50;10.05;;;;;;;3.61;87.55;100668.34;1032419;28;20050;-74
2021/05/06 01:20:59;;;;;;;10.30;9.20;;;;;;;3.63;87.53;100670.97;1032797;28;20062;-74
2021/05/06 01:21:30;;;;;;;9.85;8.95;;;;;;;3.66;87.56;100666.84;1032483;28;20057;-75
2021/05/06 01:22:01;;;;;;;10.10;9.13;;;;;;;3.68;87.33;100664.34;1035127;28;20399;-75
2021/05/06 01:22:33;;;;;;;11.60;10.05;;;;;;;3.68;87.86;100662.66;1037602;28;20054;-74
2021/05/06 01:23:06;;;;;;;12.43;10.20;;;;;;;3.67;87.85;100653.25;1036953;28;20054;-74
2021/05/06 01:23:41;;;;;;;11.30;10.10;;;;;;;3.66;88.12;100656.63;1040502;28;20056;-75
2021/05/06 01:24:12;;;;;;;10.85;9.73;;;;;;;3.72;87.04;100666.22;1041707;28;20049;-75
2021/05/06 01:24:47;;;;;;;9.57;8.65;;;;;;;3.72;87.29;100664.53;1040526;28;20083;-75
2021/05/06 01:25:18;;;;;;;10.20;8.88;;;;;;;3.70;87.15;100661.06;1037365;28;20049;-75
2021/05/06 01:25:56;;;;;;;10.55;9.45;;;;;;;3.69;87.28;100667.00;1040623;28;20486;-74
2021/05/06 01:26:42;;;;;;;12.45;9.25;;;;;;;3.65;87.79;100660.00;1042360;28;20154;-75
2021/05/06 01:27:17;;;;;;;11.10;9.88;;;;;;;3.69;88.57;100663.56;1048200;28;20459;-75
2021/05/06 01:28:01;;;;;;;10.88;9.38;;;;;;;3.65;88.15;100664.25;1049213;28;20055;-74
2021/05/06 01:28:38;;;;;;;11.70;10.23;;;;;;;3.66;88.71;100661.75;1044379;28;20049;-76
2021/05/06 01:29:25;;;;;;;10.45;9.18;;;;;;;3.70;88.42;100666.16;1044772;28;20053;-75
2021/05/06 01:30:49;;;;;;;11.27;10.07;;;;;;;3.60;88.59;100660.63;1047996;28;20121;-75
2021/05/06 01:31:24;;;;;;;11.88;10.68;;;;;;;3.61;88.97;100664.94;1048909;28;20131;-74
2021/05/06 01:32:08;;;;;;;11.63;10.25;;;;;;;3.63;88.61;100658.16;1048535;28;20511;-75
2021/05/06 01:32:43;;;;;;;15.43;11.07;;;;;;;3.64;88.71;100659.94;1044514;28;20049;-75
2021/05/06 01:33:50;;;;;;;12.75;11.25;;;;;;;3.58;88.83;100662.25;1047788;28;20048;-75
2021/05/06 01:34:16;;;;;;;13.50;10.45;;;;;;;3.59;89.02;100661.44;1049059;28;20449;-74
2021/05/06 01:34:53;;;;;;;11.02;9.90;;;;;;;3.57;88.33;100656.25;1053145;28;20052;-75
2021/05/06 01:35:32;;;;;;;11.68;10.48;;;;;;;3.57;88.72;100653.69;1052848;28;20500;-75
2021/05/06 01:36:12;;;;;;;10.63;9.52;;;;;;;3.38;88.84;100664.00;1053077;28;20487;-74
2021/05/06 01:36:50;;;;;;;12.23;10.30;;;;;;;3.43;89.10;100654.84;1048723;28;20048;-75
2021/05/06 01:37:37;;;;;;;12.68;11.48;;;;;;;3.48;89.35;100652.47;1048322;28;20067;-75
2021/05/06 01:39:49;;;;;;;11.68;10.52;;;;;;;3.55;88.66;100651.91;1053311;28;20054;-75
2021/05/06 01:41:43;;;;;;;12.10;10.90;;;;;;;3.53;88.63;100650.97;1050741;28;20044;-75
2021/05/06 01:42:20;;;;;;;12.73;10.82;;;;;;;3.41;89.17;100642.00;1052984;28;20109;-74
2021/05/06 01:43:03;;;;;;;12.07;10.88;;;;;;;3.44;88.74;100646.34;1048781;28;20071;-74
2021/05/06 01:43:49;;;;;;;13.38;11.98;;;;;;;3.37;88.49;100649.47;1044622;28;20055;-74
2021/05/06 01:46:21;;;;;;;14.52;13.13;;;;;;;3.57;89.24;100642.59;1053318;28;20169;-73
2021/05/06 01:48:12;;;;;;;15.00;13.27;;;;;;;3.54;89.37;100639.94;1052875;28;20048;-74
2021/05/06 01:50:21;;;;;;;15.80;14.13;;;;;;;3.61;89.78;100640.22;1052821;28;20055;-74
2021/05/06 01:58:45;;;;;;;19.42;17.25;;;;;;;3.66;89.99;100635.28;1048999;28;20044;-73
2021/05/06 01:59:25;;;;;;;26.08;21.60;;;;;;;3.59;90.03;100630.75;1049928;28;20385;-73
2021/05/06 02:00:06;;;;;;;23.90;21.30;;;;;;;3.60;90.02;100635.06;1052850;28;20468;-73
2021/05/06 02:00:40;;;;;;;26.15;23.48;;;;;;;3.65;90.08;100625.88;1052898;28;20055;-73
2021/05/06 02:01:11;;;;;;;26.52;22.88;;;;;;;3.66;89.94;100630.19;1052867;28;20055;-73
2021/05/06 02:01:42;;;;;;;28.70;23.77;;;;;;;3.62;90.04;100629.16;1050988;28;20052;-73
2021/05/06 02:02:13;;;;;;;29.83;25.30;;;;;;;3.64;90.14;100631.81;1052831;28;20044;-73
2021/05/06 02:02:47;;;;;;;26.88;23.30;;;;;;;3.49;90.06;100631.19;1052849;28;20067;-73
2021/05/06 02:03:18;;;;;;;26.35;23.20;;;;;;;3.47;90.34;100626.03;1052930;28;20058;-73
2021/05/06 02:03:49;;;;;;;26.65;23.80;;;;;;;3.43;90.52;100632.69;1048710;28;20105;-73
2021/05/06 02:04:20;;;;;;;29.30;24.83;;;;;;;3.51;90.72;100622.75;1048483;28;20106;-73
2021/05/06 02:04:51;;;;;;;28.25;24.65;;;;;;;3.50;90.67;100627.81;1048515;28;20045;-73
2021/05/06 02:05:26;;;;;;;29.30;26.08;;;;;;;3.51;90.86;100617.66;1049650;28;20119;-73
2021/05/06 02:05:57;;;;;;;29.08;24.98;;;;;;;3.49;91.06;100629.50;1048447;28;20117;-73
2021/05/06 02:06:28;;;;;;;29.27;25.75;;;;;;;3.54;91.03;100627.13;1045508;28;20059;-73
2021/05/06 02:07:05;;;;;;;38.05;26.45;;;;;;;3.49;90.88;100624.41;1044686;28;20045;-72
2021/05/06 02:07:39;;;;;;;29.15;25.95;;;;;;;3.49;90.63;100626.97;1045689;28;20076;-72
2021/05/06 02:08:10;;;;;;;31.17;26.08;;;;;;;3.44;90.70;100625.91;1049926;28;20040;-73
2021/05/06 02:08:41;;;;;;;32.28;27.02;;;;;;;3.44;90.69;100624.22;1052704;28;20076;-72
2021/05/06 02:09:12;;;;;;;29.45;25.88;;;;;;;3.50;90.81;100626.13;1049403;28;20059;-73
2021/05/06 02:09:46;;;;;;;32.25;27.00;;;;;;;3.49;90.73;100613.31;1052976;28;20133;-72
2021/05/06 02:10:21;;;;;;;31.48;26.48;;;;;;;3.44;90.63;100618.22;1052655;28;20139;-72
2021/05/06 02:10:56;;;;;;;33.35;26.38;;;;;;;3.48;90.76;100624.34;1052799;28;20062;-73
2021/05/06 02:11:27;;;;;;;29.63;25.20;;;;;;;3.49;90.42;100623.53;1050557;28;20057;-72
2021/05/06 02:11:58;;;;;;;28.83;24.80;;;;;;;3.52;90.84;100615.97;1052994;28;20131;-72
2021/05/06 02:12:29;;;;;;;27.85;24.95;;;;;;;3.50;90.84;100620.16;1048434;28;20063;-72
2021/05/06 02:13:00;;;;;;;30.48;24.42;;;;;;;3.48;90.98;100619.22;1048676;28;20123;-72
2021/05/06 02:13:31;;;;;;;27.90;24.50;;;;;;;3.53;91.00;100618.59;1048988;28;20094;-72
2021/05/06 02:14:03;;;;;;;27.35;24.20;;;;;;;3.55;91.04;100619.53;1046534;28;20381;-73
2021/05/06 02:14:34;;;;;;;27.23;24.48;;;;;;;3.54;90.96;100617.78;1044481;28;20480;-73
2021/05/06 02:15:23;;;;;;;25.70;23.08;;;;;;;3.50;90.85;100621.03;1045174;28;20389;-73
2021/05/06 02:15:58;;;;;;;27.08;24.17;;;;;;;3.48;90.61;100624.34;1050080;28;20101;-72
2021/05/06 02:16:39;;;;;;;24.98;22.38;;;;;;;3.41;90.23;100621.56;1048883;28;20049;-72
2021/05/06 02:17:10;;;;;;;23.05;20.63;;;;;;;3.42;90.28;100624.97;1053883;28;20099;-73
2021/05/06 02:17:42;;;;;;;25.02;22.33;;;;;;;3.44;90.48;100621.66;1057075;28;20055;-73
2021/05/06 02:18:15;;;;;;;24.33;21.83;;;;;;;3.50;90.30;100621.03;1057152;28;20048;-73
2021/05/06 02:18:46;;;;;;;29.08;22.60;;;;;;;3.49;90.44;100624.41;1052695;28;20051;-73
2021/05/06 02:19:27;;;;;;;25.45;22.80;;;;;;;3.53;90.47;100630.53;1052901;28;20070;-73
2021/05/06 02:19:58;;;;;;;28.25;23.67;;;;;;;3.52;90.34;100631.31;1052837;28;20044;-72
2021/05/06 02:20:29;;;;;;;26.67;22.80;;;;;;;3.47;90.66;100623.47;1052664;28;20062;-73
2021/05/06 02:21:00;;;;;;;24.20;21.65;;;;;;;3.54;90.80;100627.13;1052844;28;20136;-73
2021/05/06 02:21:31;;;;;;;21.88;19.60;;;;;;;3.53;90.55;100620.28;1052890;28;20430;-72
2021/05/06 02:22:05;;;;;;;21.40;18.90;;;;;;;3.49;90.46;100626.97;1052731;28;20048;-74
2021/05/06 02:22:36;;;;;;;22.13;19.55;;;;;;;3.57;90.83;100622.13;1052865;28;20400;-73
2021/05/06 02:23:07;;;;;;;22.27;19.88;;;;;;;3.59;90.71;100620.53;1052575;28;20047;-73
2021/05/06 02:23:39;;;;;;;24.25;21.67;;;;;;;3.48;90.34;100620.09;1052676;28;20056;-73
2021/05/06 02:24:10;;;;;;;22.50;20.08;;;;;;;3.50;90.31;100617.59;1049083;28;20067;-73
2021/05/06 02:24:41;;;;;;;23.92;21.30;;;;;;;3.52;90.25;100616.88;1052601;28;20098;-73
2021/05/06 02:25:13;;;;;;;23.52;20.90;;;;;;;3.52;90.10;100621.97;1052616;28;20407;-72
2021/05/06 02:25:45;;;;;;;26.92;20.55;;;;;;;3.55;90.33;100616.97;1049002;28;20054;-73
2021/05/06 02:26:16;;;;;;;23.17;20.80;;;;;;;3.58;90.37;100623.91;1052908;28;20200;-72
2021/05/06 02:26:48;;;;;;;24.33;21.80;;;;;;;3.52;90.21;100614.31;1052533;28;20076;-73
2021/05/06 02:27:19;;;;;;;23.90;21.50;;;;;;;3.54;90.50;100620.34;1052696;28;20092;-73
2021/05/06 02:27:51;;;;;;;21.73;19.13;;;;;;;3.56;90.57;100613.59;1052811;28;20040;-73
2021/05/06 02:28:22;;;;;;;25.30;21.73;;;;;;;3.57;90.65;100622.13;1052720;28;20047;-73
2021/05/06 02:28:53;;;;;;;24.92;22.23;;;;;;;3.56;90.42;100617.84;1052788;28;20053;-72
2021/05/06 02:29:25;;;;;;;20.70;18.58;;;;;;;3.48;90.04;100616.69;1049088;28;20056;-72
2021/05/06 02:29:56;;;;;;;20.13;18.13;;;;;;;3.49;90.19;100614.16;1052709;28;20123;-72
2021/05/06 02:30:27;;;;;;;20.45;17.90;;;;;;;3.49;89.96;100618.41;1052698;28;20063;-72
2021/05/06 02:30:58;;;;;;;19.90;17.88;;;;;;;3.53;89.91;100620.28;1048855;28;20131;-72
2021/05/06 02:31:29;;;;;;;20.85;18.83;;;;;;;3.56;90.15;100617.84;1048543;28;20496;-73
2021/05/06 02:32:00;;;;;;;17.95;16.13;;;;;;;3.59;90.03;100612.84;1048550;28;20083;-73
2021/05/06 02:32:32;;;;;;;20.25;18.20;;;;;;;3.60;89.99;100620.56;1048640;28;20048;-73
2021/05/06 02:33:07;;;;;;;20.40;18.30;;;;;;;3.63;89.86;100620.72;1044793;28;20146;-73
2021/05/06 02:33:38;;;;;;;18.88;16.50;;;;;;;3.64;89.59;100616.47;1044358;28;20045;-73
2021/05/06 02:34:10;;;;;;;18.27;16.27;;;;;;;3.70;89.39;100620.13;1041420;28;20092;-73
2021/05/06 02:34:41;;;;;;;18.40;16.38;;;;;;;3.66;89.67;100614.81;1041208;28;20407;-73
2021/05/06 02:35:13;;;;;;;18.45;16.48;;;;;;;3.62;89.03;100616.38;1044257;28;20040;-73
2021/05/06 02:35:44;;;;;;;15.57;14.07;;;;;;;3.66;89.33;100617.38;1044878;28;20508;-73
2021/05/06 02:36:15;;;;;;;17.42;15.63;;;;;;;3.67;89.67;100611.44;1044907;28;20098;-73
2021/05/06 02:36:46;;;;;;;16.33;14.63;;;;;;;3.63;89.59;100610.47;1044897;28;20056;-73
2021/05/06 02:37:18;;;;;;;16.08;14.48;;;;;;;3.62;89.50;100615.50;1048587;28;20503;-73
2021/05/06 02:37:50;;;;;;;18.70;15.48;;;;;;;3.61;89.33;100611.22;1048433;28;20048;-73
2021/05/06 02:38:21;;;;;;;16.60;13.95;;;;;;;3.62;89.33;100608.72;1048534;28;20063;-73
2021/05/06 02:38:52;;;;;;;15.80;13.10;;;;;;;3.61;89.07;100611.22;1047411;28;20052;-73
2021/05/06 02:39:23;;;;;;;15.90;14.32;;;;;;;3.62;89.17;100613.81;1048582;28;20049;-72
2021/05/06 02:39:54;;;;;;;16.23;14.55;;;;;;;3.60;89.19;100610.34;1048453;28;20109;-72
2021/05/06 02:40:25;;;;;;;18.90;16.00;;;;;;;3.60;89.64;100607.78;1048456;28;20167;-72
2021/05/06 02:40:56;;;;;;;17.42;15.73;;;;;;;3.64;89.81;100616.47;1044421;28;20047;-72
2021/05/06 02:41:27;;;;;;;16.95;15.25;;;;;;;3.59;89.91;100612.84;1046128;28;20115;-72
2021/05/06 02:41:58;;;;;;;17.73;15.73;;;;;;;3.58;89.67;100611.13;1048825;28;20436;-72
2021/05/06 02:42:29;;;;;;;15.20;13.13;;;;;;;3.60;89.99;100600.13;1048814;28;20048;-73
2021/05/06 02:43:01;;;;;;;16.17;14.57;;;;;;;3.61;89.78;100601.84;1052582;28;20043;-73
2021/05/06 02:43:32;;;;;;;16.83;15.20;;;;;;;3.58;89.88;100606.88;1052865;28;20044;-73
2021/05/06 02:44:03;;;;;;;16.30;14.57;;;;;;;3.59;89.79;100605.19;1052654;28;20501;-73
2021/05/06 02:44:36;;;;;;;20.00;16.40;;;;;;;3.57;89.69;100609.34;1053074;28;20482;-73
2021/05/06 02:45:09;;;;;;;17.52;15.73;;;;;;;3.59;89.81;100603.50;1052503;28;20405;-72
2021/05/06 02:45:40;;;;;;;15.27;13.68;;;;;;;3.58;89.97;100608.56;1048576;28;20055;-72
2021/05/06 02:46:11;;;;;;;14.63;13.15;;;;;;;3.57;89.71;100614.47;1048361;28;20087;-72
2021/05/06 02:46:42;;;;;;;19.45;15.10;;;;;;;3.57;89.83;100606.78;1049078;28;20075;-72
2021/05/06 02:47:13;;;;;;;16.90;15.13;;;;;;;3.51;89.65;100609.09;1049014;28;20052;-73
2021/05/06 02:47:45;;;;;;;17.45;15.55;;;;;;;3.51;89.67;100599.75;1052343;28;20432;-73
2021/05/06 02:48:16;;;;;;;16.38;14.70;;;;;;;3.56;89.67;100610.16;1048448;28;20516;-73
2021/05/06 02:48:47;;;;;;;16.90;15.10;;;;;;;3.52;89.84;100608.28;1044809;28;20053;-73
2021/05/06 02:49:21;;;;;;;17.52;15.63;;;;;;;3.54;89.72;100611.81;1044365;28;20083;-73
2021/05/06 02:49:52;;;;;;;16.67;14.98;;;;;;;3.53;89.84;100608.38;1040894;28;20137;-73
2021/05/06 02:50:24;;;;;;;15.68;14.15;;;;;;;3.55;89.64;100606.72;1040946;28;20053;-73
2021/05/06 02:50:59;;;;;;;16.35;14.65;;;;;;;3.56;89.71;100610.16;1045279;28;20053;-73
2021/05/06 02:51:40;;;;;;;15.98;14.38;;;;;;;3.52;89.76;100609.19;1044380;28;20053;-72
2021/05/06 02:52:18;;;;;;;15.65;13.98;;;;;;;3.52;89.50;100606.63;1042601;28;20095;-73
2021/05/06 02:53:02;;;;;;;16.40;14.20;;;;;;;3.44;89.67;100608.00;1043262;28;20059;-73
2021/05/06 02:53:38;;;;;;;13.93;12.48;;;;;;;3.49;89.34;100603.06;1044468;28;20060;-73
2021/05/06 02:54:10;;;;;;;16.63;14.95;;;;;;;3.42;89.59;100602.84;1048191;28;20436;-73
2021/05/06 02:54:44;;;;;;;16.80;14.35;;;;;;;3.47;89.46;100603.03;1050979;28;20054;-73
2021/05/06 02:56:07;;;;;;;16.20;14.60;;;;;;;3.49;89.52;100596.28;1052703;28;20047;-73
2021/05/06 02:57:15;;;;;;;16.85;14.40;;;;;;;3.53;89.85;100602.38;1052963;28;20109;-73
2021/05/06 03:03:01;;;;;;;17.58;15.50;;;;;;;3.23;90.28;100591.81;1052856;28;20108;-72
2021/05/06 03:03:42;;;;;;;20.23;16.77;;;;;;;3.22;89.96;100590.06;1052697;28;20052;-73
2021/05/06 03:04:13;;;;;;;18.10;15.68;;;;;;;3.23;89.96;100587.56;1048399;28;20113;-73
2021/05/06 03:04:46;;;;;;;18.08;16.27;;;;;;;3.29;89.66;100585.28;1044045;28;20102;-73
2021/05/06 03:05:19;;;;;;;16.10;14.38;;;;;;;3.32;89.40;100584.50;1042203;28;20060;-73
2021/05/06 03:05:54;;;;;;;16.50;14.90;;;;;;;3.33;89.06;100588.81;1045067;28;20082;-73
2021/05/06 03:06:27;;;;;;;15.48;13.80;;;;;;;3.32;88.97;100581.97;1045722;28;20194;-73
2021/05/06 03:07:02;;;;;;;15.25;13.75;;;;;;;3.29;88.74;100585.28;1045759;28;20120;-73
2021/05/06 03:07:34;;;;;;;14.13;12.73;;;;;;;3.28;88.83;100580.94;1048284;28;20052;-73
2021/05/06 03:08:40;;;;;;;17.52;15.80;;;;;;;3.27;88.83;100586.00;1051549;28;20087;-73
2021/05/06 03:09:29;;;;;;;16.67;14.27;;;;;;;3.25;88.95;100585.09;1047878;28;20063;-73
2021/05/06 03:10:18;;;;;;;14.77;12.98;;;;;;;3.25;88.84;100582.53;1052507;28;20047;-72
2021/05/06 03:11:50;;;;;;;15.73;14.10;;;;;;;3.25;88.23;100582.53;1053022;28;20052;-74
2021/05/06 03:12:34;;;;;;;14.02;12.63;;;;;;;3.23;88.33;100581.56;1052651;28;20055;-73
2021/05/06 03:23:14;;;;;;;14.48;12.98;;;;;;;2.87;88.63;100579.28;1044146;28;20457;-73
2021/05/06 03:23:46;;;;;;;12.93;11.63;;;;;;;2.91;88.57;100581.16;1043907;28;20157;-73
2021/05/06 03:24:19;;;;;;;14.25;12.85;;;;;;;2.90;88.58;100580.31;1044007;28;20187;-73
2021/05/06 03:24:54;;;;;;;16.52;14.52;;;;;;;2.90;88.90;100580.31;1042672;28;20049;-73
2021/05/06 03:25:30;;;;;;;14.73;13.23;;;;;;;2.90;88.81;100587.09;1042865;28;20073;-73
2021/05/06 03:26:02;;;;;;;17.25;13.60;;;;;;;2.81;88.39;100581.59;1048286;28;20044;-72
2021/05/06 03:26:33;;;;;;;15.43;12.82;;;;;;;2.82;88.27;100580.78;1046076;28;20071;-72
2021/05/06 03:27:05;;;;;;;15.50;13.90;;;;;;;2.80;88.55;100584.97;1049512;28;20446;-72
2021/05/06 03:27:44;;;;;;;13.15;11.85;;;;;;;2.78;88.25;100587.47;1048169;28;20056;-72
2021/05/06 03:28:23;;;;;;;15.63;14.02;;;;;;;2.66;88.63;100581.81;1045576;28;20045;-73
2021/05/06 03:28:59;;;;;;;15.15;13.60;;;;;;;2.75;88.13;100583.88;1044277;28;20410;-73
2021/05/06 03:29:38;;;;;;;16.88;15.18;;;;;;;2.76;88.68;100583.94;1047511;28;20609;-72
2021/05/06 03:41:37;;;;;;;14.57;13.07;;;;;;;2.54;88.50;100584.72;1052850;28;20498;-73
2021/05/06 03:44:21;;;;;;;15.48;13.07;;;;;;;2.44;88.76;100592.81;1043860;28;20072;-73
2021/05/06 04:13:29;;;;;;;21.65;19.35;;;;;;;2.32;89.18;100593.13;1052524;28;20076;-72
2021/05/06 04:16:20;;;;;;;28.52;24.23;;;;;;;2.43;90.71;100592.72;1052708;28;20406;-73
2021/05/06 04:18:28;;;;;;;27.77;23.58;;;;;;;2.48;89.89;100594.66;1052320;28;20464;-73
2021/05/06 04:25:34;;;;;;;23.83;20.48;;;;;;;2.49;89.58;100595.53;1051808;28;20083;-73
2021/05/06 04:26:17;;;;;;;26.90;21.10;;;;;;;2.55;89.92;100600.91;1051927;28;20421;-73
2021/05/06 04:27:27;;;;;;;26.15;22.13;;;;;;;2.54;89.79;100594.94;1052389;28;20300;-73
2021/05/06 04:30:46;;;;;;;23.30;20.80;;;;;;;2.52;89.90;100600.78;1051882;28;20048;-72
2021/05/06 04:35:38;;;;;;;27.50;22.90;;;;;;;2.60;91.02;100601.97;1052558;28;20532;-72
2021/05/06 04:36:45;;;;;;;26.60;22.50;;;;;;;2.58;91.26;100594.25;1052676;28;20044;-72
2021/05/06 04:37:16;;;;;;;24.77;21.25;;;;;;;2.58;91.34;100601.06;1048117;28;20052;-73
2021/05/06 04:37:51;;;;;;;25.40;22.33;;;;;;;2.60;91.52;100595.19;1044147;28;20445;-73
2021/05/06 04:38:23;;;;;;;30.70;24.02;;;;;;;2.64;91.52;100598.75;1047664;28;20534;-73
2021/05/06 04:38:54;;;;;;;28.42;23.30;;;;;;;2.66;91.86;100590.34;1044016;28;20056;-73
2021/05/06 04:46:08;;;;;;;29.38;23.63;;;;;;;2.71;90.65;100593.09;1052555;28;20052;-73
2021/05/06 04:50:14;;;;;;;26.08;22.00;;;;;;;2.70;90.23;100583.69;1052618;28;20055;-74
2021/05/06 04:55:42;;;;;;;31.55;27.42;;;;;;;2.92;91.06;100590.56;1053316;28;20043;-73
2021/05/06 05:03:35;;;;;;;32.55;26.45;;;;;;;3.02;90.02;100594.38;1053266;28;20052;-73
2021/05/06 05:04:52;;;;;;;34.08;26.83;;;;;;;3.05;90.34;100590.25;1052650;28;20062;-73
2021/05/06 05:05:23;;;;;;;34.92;26.67;;;;;;;3.04;90.49;100590.19;1048709;28;20067;-73
2021/05/06 05:05:54;;;;;;;35.08;28.27;;;;;;;3.03;90.16;100589.31;1051013;28;20151;-73
2021/05/06 05:06:34;;;;;;;34.47;27.83;;;;;;;3.04;90.49;100588.50;1050195;28;20054;-74
2021/05/06 05:07:13;;;;;;;36.30;28.08;;;;;;;3.06;90.90;100592.00;1052878;28;20055;-73
2021/05/06 05:07:49;;;;;;;34.15;27.15;;;;;;;3.06;91.03;100591.13;1048799;28;20512;-73
2021/05/06 05:08:20;;;;;;;32.38;26.60;;;;;;;3.06;90.70;100588.56;1044562;28;20583;-73
2021/05/06 05:10:07;;;;;;;33.13;27.75;;;;;;;3.11;90.19;100589.63;1050395;28;20458;-73
2021/05/06 05:11:07;;;;;;;33.45;27.70;;;;;;;3.12;90.02;100594.81;1050185;28;20135;-73
2021/05/06 05:11:51;;;;;;;35.65;28.75;;;;;;;3.14;90.07;100602.53;1046406;28;20054;-73
2021/05/06 05:13:49;;;;;;;39.67;32.05;;;;;;;3.15;90.20;100594.94;1051993;28;20048;-73
2021/05/06 05:15:01;;;;;;;40.33;30.70;;;;;;;3.17;90.69;100593.28;1052919;28;20114;-73
2021/05/06 05:20:00;;;;;;;41.42;30.30;;;;;;;3.25;91.13;100587.66;1050694;28;20055;-73
2021/05/06 05:20:53;;;;;;;38.60;30.95;;;;;;;3.28;90.83;100593.72;1052309;28;20182;-73
2021/05/06 05:24:02;;;;;;;56.17;38.22;;;;;;;3.30;91.61;100592.13;1052888;28;20055;-73
2021/05/06 05:24:46;;;;;;;48.75;37.33;;;;;;;3.33;91.74;100594.78;1052918;28;20102;-73
2021/05/06 05:26:10;;;;;;;53.88;38.60;;;;;;;3.34;92.01;100603.31;1052110;28;20458;-73
2021/05/06 05:26:41;;;;;;;53.55;39.05;;;;;;;3.36;91.85;100596.63;1052889;28;20715;-73
2021/05/06 05:27:12;;;;;;;61.33;39.15;;;;;;;3.40;92.03;100601.91;1048505;28;20447;-73
2021/05/06 05:27:43;;;;;;;59.08;42.40;;;;;;;3.36;91.89;100594.06;1048510;28;20127;-73
2021/05/06 05:28:14;;;;;;;61.97;43.72;;;;;;;3.35;91.93;100595.75;1048665;28;20139;-73
2021/05/06 05:28:45;;;;;;;58.95;43.70;;;;;;;3.37;91.92;100598.34;1048311;28;20499;-74
2021/05/06 05:29:16;;;;;;;57.85;43.30;;;;;;;3.37;91.94;100595.78;1048917;28;20056;-73
2021/05/06 05:29:48;;;;;;;55.45;40.45;;;;;;;3.35;92.16;100598.31;1048853;28;20049;-73
2021/05/06 05:30:23;;;;;;;50.35;39.55;;;;;;;3.32;91.81;100597.28;1048463;28;20060;-73
2021/05/06 05:31:09;;;;;;;63.55;42.78;;;;;;;3.33;92.07;100597.34;1048714;28;20048;-73
2021/05/06 05:31:40;;;;;;;51.75;40.95;;;;;;;3.35;91.86;100592.31;1048014;28;20059;-74
2021/05/06 05:32:11;;;;;;;62.70;44.38;;;;;;;3.40;92.13;100588.22;1052776;28;20481;-73
2021/05/06 05:32:42;;;;;;;58.10;43.50;;;;;;;3.45;92.09;100595.25;1048644;28;20048;-73
2021/05/06 05:33:17;;;;;;;59.78;45.38;;;;;;;3.38;92.07;100588.19;1049192;28;20052;-73
2021/05/06 05:33:56;;;;;;;61.30;44.75;;;;;;;3.38;92.11;100592.41;1052891;28;20062;-73
2021/05/06 05:35:16;;;;;;;61.05;45.60;;;;;;;3.43;92.01;100590.91;1050679;28;20055;-73
2021/05/06 05:36:06;;;;;;;56.38;41.70;;;;;;;3.49;92.13;100590.28;1048166;28;20053;-74
2021/05/06 05:36:17;;;;;;;57.10;40.25;;;;;;;3.47;91.87;100591.94;1040680;28;20050;-73
2021/05/06 05:36:51;;;;;;;58.30;40.45;;;;;;;3.48;91.89;100591.09;1051292;28;20121;-73
2021/05/06 05:37:24;;;;;;;59.83;44.50;;;;;;;3.47;91.92;100589.38;1052747;28;20048;-73
2021/05/06 05:38:10;;;;;;;60.60;44.33;;;;;;;3.51;91.81;100592.06;1048716;28;20048;-73
2021/05/06 05:54:54;;;;;;;73.30;49.35;;;;;;;3.81;91.82;100591.53;1052903;28;20611;-74
2021/05/06 05:55:25;;;;;;;67.72;48.78;;;;;;;3.90;91.74;100594.41;1053082;28;20076;-73
2021/05/06 05:55:56;;;;;;;73.95;51.35;;;;;;;3.92;91.82;100592.81;1053053;28;20044;-73
2021/05/06 05:56:27;;;;;;;70.80;49.47;;;;;;;3.99;91.82;100584.53;1053140;28;20432;-73
2021/05/06 05:56:58;;;;;;;73.05;51.58;;;;;;;4.06;92.14;100594.16;1052937;28;20059;-73
2021/05/06 05:57:29;;;;;;;70.00;50.08;;;;;;;4.07;91.62;100590.78;1052668;28;20048;-73
2021/05/06 05:58:00;;;;;;;71.15;48.20;;;;;;;4.06;91.51;100593.31;1052734;28;20044;-74